sensor_id;sensor_type;location;lat;lon;timestamp;temperature;humidity
5258;DHT22;2651;51.594;9.928;2022-07-04T00:00:28;19.70;1.00
5258;DHT22;2651;51.594;9.928;2022-07-04T00:01:30;19.70;1.00
5258;DHT22;2651;51.594;9.928;2022-07-04T00:02:32;19.60;1.00
5258;DHT22;2651;51.594;9.928;2022-07-04T00:03:34;19.60;1.00
5258;DHT22;2651;51.594;9.928;2022-07-04T00:04:36;19.60;1.00
5258;DHT22;2651;51.594;9.928;2022-07-04T00:05:38;19.70;1.00
5258;DHT22;2651;51.594;9.928;2022-07-04T00:06:40;19.70;1.00
5258;DHT22;2651;51.594;9.928;2022-07-04T00:07:49;19.70;1.00
5258;DHT22;2651;51.594;9.928;2022-07-04T00:08:56;19.70;1.00
5258;DHT22;2651;51.594;9.928;2022-07-04T00:09:58;19.60;1.00
5258;DHT22;2651;51.594;9.928;2022-07-04T00:11:00;19.60;1.00
5258;DHT22;2651;51.594;9.928;2022-07-04T00:12:01;19.60;1.00
5258;DHT22;2651;51.594;9.928;2022-07-04T00:13:03;19.60;1.00
5258;DHT22;2651;51.594;9.928;2022-07-04T00:14:05;19.60;1.00
5258;DHT22;2651;51.594;9.928;2022-07-04T00:15:07;19.60;1.00
5258;DHT22;2651;51.594;9.928;2022-07-04T00:16:09;19.50;1.00
5258;DHT22;2651;51.594;9.928;2022-07-04T00:17:12;19.50;1.00
5258;DHT22;2651;51.594;9.928;2022-07-04T00:18:14;19.50;1.00
5258;DHT22;2651;51.594;9.928;2022-07-04T00:19:15;19.50;1.00
5258;DHT22;2651;51.594;9.928;2022-07-04T00:20:17;19.40;1.00
5258;DHT22;2651;51.594;9.928;2022-07-04T00:21:19;19.40;2.40
5258;DHT22;2651;51.594;9.928;2022-07-04T00:22:21;19.40;3.10
5258;DHT22;2651;51.594;9.928;2022-07-04T00:23:23;19.30;4.10
5258;DHT22;2651;51.594;9.928;2022-07-04T00:24:25;19.30;5.00
5258;DHT22;2651;51.594;9.928;2022-07-04T00:25:27;19.30;5.60
5258;DHT22;2651;51.594;9.928;2022-07-04T00:26:29;19.30;6.60
5258;DHT22;2651;51.594;9.928;2022-07-04T00:27:30;19.30;5.90
5258;DHT22;2651;51.594;9.928;2022-07-04T00:28:32;19.20;7.10
5258;DHT22;2651;51.594;9.928;2022-07-04T00:30:36;19.10;8.60
5258;DHT22;2651;51.594;9.928;2022-07-04T00:31:38;19.10;10.20
5258;DHT22;2651;51.594;9.928;2022-07-04T00:32:40;19.00;14.00
5258;DHT22;2651;51.594;9.928;2022-07-04T00:33:42;19.00;17.40
5258;DHT22;2651;51.594;9.928;2022-07-04T00:34:44;19.00;17.40
5258;DHT22;2651;51.594;9.928;2022-07-04T00:35:46;19.00;17.00
5258;DHT22;2651;51.594;9.928;2022-07-04T00:36:48;19.00;18.20
5258;DHT22;2651;51.594;9.928;2022-07-04T00:37:50;18.90;18.90
5258;DHT22;2651;51.594;9.928;2022-07-04T00:38:52;18.90;18.80
5258;DHT22;2651;51.594;9.928;2022-07-04T00:39:54;18.90;19.80
5258;DHT22;2651;51.594;9.928;2022-07-04T00:40:56;18.80;16.70
5258;DHT22;2651;51.594;9.928;2022-07-04T00:41:58;18.80;20.30
5258;DHT22;2651;51.594;9.928;2022-07-04T00:43:04;18.70;22.20
5258;DHT22;2651;51.594;9.928;2022-07-04T00:44:08;18.60;23.90
5258;DHT22;2651;51.594;9.928;2022-07-04T00:45:16;18.50;28.30
5258;DHT22;2651;51.594;9.928;2022-07-04T00:46:18;18.60;33.30
5258;DHT22;2651;51.594;9.928;2022-07-04T00:47:20;18.60;31.80
5258;DHT22;2651;51.594;9.928;2022-07-04T00:48:22;18.50;30.80
5258;DHT22;2651;51.594;9.928;2022-07-04T00:49:24;18.50;32.50
5258;DHT22;2651;51.594;9.928;2022-07-04T00:50:26;18.50;34.40
5258;DHT22;2651;51.594;9.928;2022-07-04T00:51:28;18.50;38.00
5258;DHT22;2651;51.594;9.928;2022-07-04T00:52:30;18.50;37.10
5258;DHT22;2651;51.594;9.928;2022-07-04T00:53:32;18.50;35.70
5258;DHT22;2651;51.594;9.928;2022-07-04T00:54:34;18.60;33.20
5258;DHT22;2651;51.594;9.928;2022-07-04T00:55:37;18.60;34.40
5258;DHT22;2651;51.594;9.928;2022-07-04T00:56:41;18.60;34.10
5258;DHT22;2651;51.594;9.928;2022-07-04T00:57:43;18.60;35.30
5258;DHT22;2651;51.594;9.928;2022-07-04T00:58:45;18.50;34.40
5258;DHT22;2651;51.594;9.928;2022-07-04T00:59:47;18.60;35.30
5258;DHT22;2651;51.594;9.928;2022-07-04T01:00:49;18.60;36.30
5258;DHT22;2651;51.594;9.928;2022-07-04T01:01:51;18.50;35.30
5258;DHT22;2651;51.594;9.928;2022-07-04T01:02:53;18.60;37.20
5258;DHT22;2651;51.594;9.928;2022-07-04T01:03:56;18.50;37.30
5258;DHT22;2651;51.594;9.928;2022-07-04T01:04:58;18.50;37.60
5258;DHT22;2651;51.594;9.928;2022-07-04T01:06:00;18.60;37.80
5258;DHT22;2651;51.594;9.928;2022-07-04T01:07:04;18.60;34.80
5258;DHT22;2651;51.594;9.928;2022-07-04T01:08:06;18.60;37.90
5258;DHT22;2651;51.594;9.928;2022-07-04T01:09:08;18.60;38.50
5258;DHT22;2651;51.594;9.928;2022-07-04T01:10:10;18.60;37.20
5258;DHT22;2651;51.594;9.928;2022-07-04T01:11:13;18.60;37.10
5258;DHT22;2651;51.594;9.928;2022-07-04T01:12:28;18.60;38.40
5258;DHT22;2651;51.594;9.928;2022-07-04T01:13:30;18.60;37.30
5258;DHT22;2651;51.594;9.928;2022-07-04T01:14:32;18.60;36.80
5258;DHT22;2651;51.594;9.928;2022-07-04T01:15:37;18.70;38.20
5258;DHT22;2651;51.594;9.928;2022-07-04T01:16:39;18.70;36.20
5258;DHT22;2651;51.594;9.928;2022-07-04T01:17:41;18.70;36.00
5258;DHT22;2651;51.594;9.928;2022-07-04T01:18:43;18.70;34.80
5258;DHT22;2651;51.594;9.928;2022-07-04T01:19:45;18.70;35.30
5258;DHT22;2651;51.594;9.928;2022-07-04T01:20:47;18.70;32.60
5258;DHT22;2651;51.594;9.928;2022-07-04T01:21:52;18.70;33.40
5258;DHT22;2651;51.594;9.928;2022-07-04T01:22:54;18.70;31.00
5258;DHT22;2651;51.594;9.928;2022-07-04T01:23:55;18.60;28.80
5258;DHT22;2651;51.594;9.928;2022-07-04T01:24:57;18.60;29.30
5258;DHT22;2651;51.594;9.928;2022-07-04T01:25:59;18.60;28.70
5258;DHT22;2651;51.594;9.928;2022-07-04T01:27:03;18.60;27.20
5258;DHT22;2651;51.594;9.928;2022-07-04T01:28:05;18.50;29.80
5258;DHT22;2651;51.594;9.928;2022-07-04T01:29:10;18.50;32.70
5258;DHT22;2651;51.594;9.928;2022-07-04T01:30:12;18.50;32.10
5258;DHT22;2651;51.594;9.928;2022-07-04T01:31:14;18.40;30.70
5258;DHT22;2651;51.594;9.928;2022-07-04T01:32:16;18.40;34.30
5258;DHT22;2651;51.594;9.928;2022-07-04T01:33:18;18.30;34.40
5258;DHT22;2651;51.594;9.928;2022-07-04T01:34:21;18.40;34.20
5258;DHT22;2651;51.594;9.928;2022-07-04T01:35:23;18.30;37.30
5258;DHT22;2651;51.594;9.928;2022-07-04T01:36:25;18.30;38.60
5258;DHT22;2651;51.594;9.928;2022-07-04T01:37:26;18.30;38.40
5258;DHT22;2651;51.594;9.928;2022-07-04T01:38:28;18.30;40.00
5258;DHT22;2651;51.594;9.928;2022-07-04T01:39:30;18.20;40.20
5258;DHT22;2651;51.594;9.928;2022-07-04T01:40:32;18.20;41.60
5258;DHT22;2651;51.594;9.928;2022-07-04T01:41:34;18.20;42.90
5258;DHT22;2651;51.594;9.928;2022-07-04T01:42:36;18.20;43.70
5258;DHT22;2651;51.594;9.928;2022-07-04T01:43:38;18.20;46.10
5258;DHT22;2651;51.594;9.928;2022-07-04T01:44:40;18.20;47.90
5258;DHT22;2651;51.594;9.928;2022-07-04T01:45:42;18.20;46.50
5258;DHT22;2651;51.594;9.928;2022-07-04T01:46:44;18.20;47.40
5258;DHT22;2651;51.594;9.928;2022-07-04T01:47:46;18.20;47.40
5258;DHT22;2651;51.594;9.928;2022-07-04T01:48:47;18.20;45.20
5258;DHT22;2651;51.594;9.928;2022-07-04T01:49:49;18.10;49.30
5258;DHT22;2651;51.594;9.928;2022-07-04T01:50:51;18.10;52.80
5258;DHT22;2651;51.594;9.928;2022-07-04T01:51:53;18.10;49.30
5258;DHT22;2651;51.594;9.928;2022-07-04T01:52:55;18.00;49.00
5258;DHT22;2651;51.594;9.928;2022-07-04T01:53:57;18.00;50.10
5258;DHT22;2651;51.594;9.928;2022-07-04T01:54:58;18.00;57.00
5258;DHT22;2651;51.594;9.928;2022-07-04T01:56:00;18.00;55.00
5258;DHT22;2651;51.594;9.928;2022-07-04T01:57:02;18.00;51.80
5258;DHT22;2651;51.594;9.928;2022-07-04T01:58:04;18.00;53.30
5258;DHT22;2651;51.594;9.928;2022-07-04T01:59:06;18.00;56.30
5258;DHT22;2651;51.594;9.928;2022-07-04T02:00:10;17.90;55.40
5258;DHT22;2651;51.594;9.928;2022-07-04T02:01:30;18.00;54.60
5258;DHT22;2651;51.594;9.928;2022-07-04T02:02:32;17.90;56.70
5258;DHT22;2651;51.594;9.928;2022-07-04T02:03:34;17.90;58.20
5258;DHT22;2651;51.594;9.928;2022-07-04T02:04:36;17.90;55.80
5258;DHT22;2651;51.594;9.928;2022-07-04T02:05:38;17.80;53.00
5258;DHT22;2651;51.594;9.928;2022-07-04T02:06:40;17.90;57.00
5258;DHT22;2651;51.594;9.928;2022-07-04T02:07:42;17.80;59.10
5258;DHT22;2651;51.594;9.928;2022-07-04T02:08:44;17.80;58.80
5258;DHT22;2651;51.594;9.928;2022-07-04T02:10:06;17.80;60.30
5258;DHT22;2651;51.594;9.928;2022-07-04T02:11:08;17.80;63.30
5258;DHT22;2651;51.594;9.928;2022-07-04T02:12:10;17.80;58.80
5258;DHT22;2651;51.594;9.928;2022-07-04T02:13:30;17.70;63.40
5258;DHT22;2651;51.594;9.928;2022-07-04T02:14:33;17.70;68.30
5258;DHT22;2651;51.594;9.928;2022-07-04T02:15:39;17.70;70.50
5258;DHT22;2651;51.594;9.928;2022-07-04T02:16:43;17.70;69.80
5258;DHT22;2651;51.594;9.928;2022-07-04T02:17:45;17.60;71.10
5258;DHT22;2651;51.594;9.928;2022-07-04T02:18:47;17.70;70.10
5258;DHT22;2651;51.594;9.928;2022-07-04T02:19:49;17.70;68.60
5258;DHT22;2651;51.594;9.928;2022-07-04T02:20:51;17.70;66.40
5258;DHT22;2651;51.594;9.928;2022-07-04T02:21:53;17.70;67.80
5258;DHT22;2651;51.594;9.928;2022-07-04T02:22:55;17.70;67.50
5258;DHT22;2651;51.594;9.928;2022-07-04T02:23:57;17.70;64.60
5258;DHT22;2651;51.594;9.928;2022-07-04T02:24:59;17.70;66.90
5258;DHT22;2651;51.594;9.928;2022-07-04T02:26:03;17.70;67.10
5258;DHT22;2651;51.594;9.928;2022-07-04T02:27:05;17.70;69.30
5258;DHT22;2651;51.594;9.928;2022-07-04T02:28:07;17.70;65.80
5258;DHT22;2651;51.594;9.928;2022-07-04T02:29:09;17.70;63.10
5258;DHT22;2651;51.594;9.928;2022-07-04T02:30:11;17.70;63.30
5258;DHT22;2651;51.594;9.928;2022-07-04T02:31:14;17.70;63.90
5258;DHT22;2651;51.594;9.928;2022-07-04T02:32:16;17.60;60.60
5258;DHT22;2651;51.594;9.928;2022-07-04T02:33:18;17.60;63.90
5258;DHT22;2651;51.594;9.928;2022-07-04T02:34:20;17.50;66.80
5258;DHT22;2651;51.594;9.928;2022-07-04T02:35:22;17.50;65.80
5258;DHT22;2651;51.594;9.928;2022-07-04T02:36:26;17.40;70.10
5258;DHT22;2651;51.594;9.928;2022-07-04T02:37:28;17.10;94.40
5258;DHT22;2651;51.594;9.928;2022-07-04T02:38:30;17.30;81.20
5258;DHT22;2651;51.594;9.928;2022-07-04T02:39:32;17.40;81.30
5258;DHT22;2651;51.594;9.928;2022-07-04T02:40:33;17.30;84.20
5258;DHT22;2651;51.594;9.928;2022-07-04T02:41:36;17.30;88.70
5258;DHT22;2651;51.594;9.928;2022-07-04T02:42:38;17.20;89.80
5258;DHT22;2651;51.594;9.928;2022-07-04T02:43:40;17.30;91.20
5258;DHT22;2651;51.594;9.928;2022-07-04T02:44:42;17.20;91.80
5258;DHT22;2651;51.594;9.928;2022-07-04T02:45:46;17.20;92.00
5258;DHT22;2651;51.594;9.928;2022-07-04T02:46:48;17.10;85.00
5258;DHT22;2651;51.594;9.928;2022-07-04T02:47:50;17.10;80.90
5258;DHT22;2651;51.594;9.928;2022-07-04T02:48:51;17.10;82.50
5258;DHT22;2651;51.594;9.928;2022-07-04T02:49:54;17.10;83.20
5258;DHT22;2651;51.594;9.928;2022-07-04T02:50:56;17.10;89.10
5258;DHT22;2651;51.594;9.928;2022-07-04T02:51:58;17.10;91.00
5258;DHT22;2651;51.594;9.928;2022-07-04T02:52:59;17.10;90.80
5258;DHT22;2651;51.594;9.928;2022-07-04T02:54:01;17.10;92.10
5258;DHT22;2651;51.594;9.928;2022-07-04T02:55:03;17.10;91.70
5258;DHT22;2651;51.594;9.928;2022-07-04T02:56:05;17.00;91.20
5258;DHT22;2651;51.594;9.928;2022-07-04T02:57:08;17.00;90.90
5258;DHT22;2651;51.594;9.928;2022-07-04T02:58:10;16.90;94.40
5258;DHT22;2651;51.594;9.928;2022-07-04T02:59:11;16.90;95.40
5258;DHT22;2651;51.594;9.928;2022-07-04T03:00:14;17.00;96.40
5258;DHT22;2651;51.594;9.928;2022-07-04T03:01:28;17.00;93.60
5258;DHT22;2651;51.594;9.928;2022-07-04T03:02:30;17.00;93.50
5258;DHT22;2651;51.594;9.928;2022-07-04T03:03:31;16.80;93.10
5258;DHT22;2651;51.594;9.928;2022-07-04T03:04:34;16.80;98.20
5258;DHT22;2651;51.594;9.928;2022-07-04T03:05:36;16.80;98.90
5258;DHT22;2651;51.594;9.928;2022-07-04T03:06:37;16.90;99.20
5258;DHT22;2651;51.594;9.928;2022-07-04T03:07:41;16.90;96.70
5258;DHT22;2651;51.594;9.928;2022-07-04T03:08:43;16.90;96.30
5258;DHT22;2651;51.594;9.928;2022-07-04T03:09:45;16.90;95.70
5258;DHT22;2651;51.594;9.928;2022-07-04T03:10:49;16.90;95.30
5258;DHT22;2651;51.594;9.928;2022-07-04T03:11:52;16.90;94.60
5258;DHT22;2651;51.594;9.928;2022-07-04T03:12:57;16.90;93.90
5258;DHT22;2651;51.594;9.928;2022-07-04T03:13:58;16.90;93.80
5258;DHT22;2651;51.594;9.928;2022-07-04T03:15:00;16.90;95.00
5258;DHT22;2651;51.594;9.928;2022-07-04T03:16:02;16.80;96.80
5258;DHT22;2651;51.594;9.928;2022-07-04T03:17:04;16.80;99.70
5258;DHT22;2651;51.594;9.928;2022-07-04T03:18:06;16.70;97.50
5258;DHT22;2651;51.594;9.928;2022-07-04T03:19:08;16.70;99.90
5258;DHT22;2651;51.594;9.928;2022-07-04T03:20:10;16.80;99.90
5258;DHT22;2651;51.594;9.928;2022-07-04T03:21:12;16.70;99.30
5258;DHT22;2651;51.594;9.928;2022-07-04T03:22:14;16.70;99.90
5258;DHT22;2651;51.594;9.928;2022-07-04T03:23:16;16.70;99.90
5258;DHT22;2651;51.594;9.928;2022-07-04T03:24:18;16.70;99.90
5258;DHT22;2651;51.594;9.928;2022-07-04T03:25:20;16.70;99.90
5258;DHT22;2651;51.594;9.928;2022-07-04T03:26:25;16.70;99.90
5258;DHT22;2651;51.594;9.928;2022-07-04T03:27:27;16.70;99.90
5258;DHT22;2651;51.594;9.928;2022-07-04T03:28:29;16.70;99.90
5258;DHT22;2651;51.594;9.928;2022-07-04T03:29:31;16.80;99.90
5258;DHT22;2651;51.594;9.928;2022-07-04T03:30:33;16.80;99.90
5258;DHT22;2651;51.594;9.928;2022-07-04T03:31:36;16.80;99.90
5258;DHT22;2651;51.594;9.928;2022-07-04T03:32:38;16.80;99.90
5258;DHT22;2651;51.594;9.928;2022-07-04T03:33:40;16.80;99.90
5258;DHT22;2651;51.594;9.928;2022-07-04T03:34:42;16.80;99.90
5258;DHT22;2651;51.594;9.928;2022-07-04T03:35:44;16.80;99.90
5258;DHT22;2651;51.594;9.928;2022-07-04T03:36:49;16.80;99.90
5258;DHT22;2651;51.594;9.928;2022-07-04T03:37:51;16.80;99.90
5258;DHT22;2651;51.594;9.928;2022-07-04T03:38:52;16.80;99.90
5258;DHT22;2651;51.594;9.928;2022-07-04T03:39:54;16.80;99.90
5258;DHT22;2651;51.594;9.928;2022-07-04T03:40:56;16.80;98.50
5258;DHT22;2651;51.594;9.928;2022-07-04T03:41:58;16.80;97.20
5258;DHT22;2651;51.594;9.928;2022-07-04T03:43:00;16.80;94.30
5258;DHT22;2651;51.594;9.928;2022-07-04T03:44:02;16.80;94.30
5258;DHT22;2651;51.594;9.928;2022-07-04T03:45:05;16.80;93.30
5258;DHT22;2651;51.594;9.928;2022-07-04T03:46:07;16.70;95.10
5258;DHT22;2651;51.594;9.928;2022-07-04T03:47:09;16.70;97.90
5258;DHT22;2651;51.594;9.928;2022-07-04T03:48:11;16.70;96.10
5258;DHT22;2651;51.594;9.928;2022-07-04T03:49:13;16.70;95.70
5258;DHT22;2651;51.594;9.928;2022-07-04T03:50:15;16.70;94.00
5258;DHT22;2651;51.594;9.928;2022-07-04T03:51:17;16.70;91.40
5258;DHT22;2651;51.594;9.928;2022-07-04T03:52:18;16.60;92.70
5258;DHT22;2651;51.594;9.928;2022-07-04T03:53:20;16.60;93.30
5258;DHT22;2651;51.594;9.928;2022-07-04T03:54:22;16.60;94.00
5258;DHT22;2651;51.594;9.928;2022-07-04T03:55:24;16.50;95.50
5258;DHT22;2651;51.594;9.928;2022-07-04T03:56:26;16.50;98.40
5258;DHT22;2651;51.594;9.928;2022-07-04T03:57:28;16.40;99.00
5258;DHT22;2651;51.594;9.928;2022-07-04T03:58:29;16.50;99.90
5258;DHT22;2651;51.594;9.928;2022-07-04T03:59:31;16.40;99.90
5258;DHT22;2651;51.594;9.928;2022-07-04T04:00:33;16.40;99.90
5258;DHT22;2651;51.594;9.928;2022-07-04T04:01:35;16.50;99.90
5258;DHT22;2651;51.594;9.928;2022-07-04T04:02:38;16.40;99.90
5258;DHT22;2651;51.594;9.928;2022-07-04T04:03:46;16.30;99.90
5258;DHT22;2651;51.594;9.928;2022-07-04T04:05:07;16.30;99.90
5258;DHT22;2651;51.594;9.928;2022-07-04T04:06:27;16.30;99.90
5258;DHT22;2651;51.594;9.928;2022-07-04T04:07:29;16.30;99.90
5258;DHT22;2651;51.594;9.928;2022-07-04T04:08:31;16.30;99.90
5258;DHT22;2651;51.594;9.928;2022-07-04T04:09:33;16.40;99.90
5258;DHT22;2651;51.594;9.928;2022-07-04T04:10:34;16.40;99.90
5258;DHT22;2651;51.594;9.928;2022-07-04T04:11:36;16.50;99.90
5258;DHT22;2651;51.594;9.928;2022-07-04T04:12:38;16.50;99.90
5258;DHT22;2651;51.594;9.928;2022-07-04T04:13:40;16.40;99.90
5258;DHT22;2651;51.594;9.928;2022-07-04T04:14:42;16.50;99.90
5258;DHT22;2651;51.594;9.928;2022-07-04T04:15:44;16.50;99.90
5258;DHT22;2651;51.594;9.928;2022-07-04T04:16:46;16.60;99.90
5258;DHT22;2651;51.594;9.928;2022-07-04T04:17:48;16.50;99.90
5258;DHT22;2651;51.594;9.928;2022-07-04T04:18:50;16.60;99.90
5258;DHT22;2651;51.594;9.928;2022-07-04T04:19:52;16.60;99.90
5258;DHT22;2651;51.594;9.928;2022-07-04T04:20:54;16.60;99.90
5258;DHT22;2651;51.594;9.928;2022-07-04T04:21:55;16.70;99.90
5258;DHT22;2651;51.594;9.928;2022-07-04T04:22:57;16.80;99.90
5258;DHT22;2651;51.594;9.928;2022-07-04T04:23:59;16.90;99.90
5258;DHT22;2651;51.594;9.928;2022-07-04T04:25:01;17.00;99.90
5258;DHT22;2651;51.594;9.928;2022-07-04T04:26:03;17.00;99.90
5258;DHT22;2651;51.594;9.928;2022-07-04T04:27:05;17.10;99.90
5258;DHT22;2651;51.594;9.928;2022-07-04T04:28:07;17.10;99.90
5258;DHT22;2651;51.594;9.928;2022-07-04T04:29:09;17.20;99.90
5258;DHT22;2651;51.594;9.928;2022-07-04T04:30:12;17.20;99.90
5258;DHT22;2651;51.594;9.928;2022-07-04T04:31:13;17.10;99.90
5258;DHT22;2651;51.594;9.928;2022-07-04T04:32:16;17.20;99.90
5258;DHT22;2651;51.594;9.928;2022-07-04T04:33:18;17.20;99.90
5258;DHT22;2651;51.594;9.928;2022-07-04T04:34:20;17.20;99.90
5258;DHT22;2651;51.594;9.928;2022-07-04T04:35:21;17.30;99.90
5258;DHT22;2651;51.594;9.928;2022-07-04T04:36:24;17.30;97.40
5258;DHT22;2651;51.594;9.928;2022-07-04T04:37:26;17.40;94.20
5258;DHT22;2651;51.594;9.928;2022-07-04T04:38:28;17.40;91.50
5258;DHT22;2651;51.594;9.928;2022-07-04T04:39:29;17.40;83.80
5258;DHT22;2651;51.594;9.928;2022-07-04T04:40:31;17.40;81.80
5258;DHT22;2651;51.594;9.928;2022-07-04T04:41:33;17.40;78.60
5258;DHT22;2651;51.594;9.928;2022-07-04T04:42:35;17.40;82.30
5258;DHT22;2651;51.594;9.928;2022-07-04T04:43:39;17.40;83.20
5258;DHT22;2651;51.594;9.928;2022-07-04T04:44:41;17.40;87.90
5258;DHT22;2651;51.594;9.928;2022-07-04T04:45:44;17.50;82.70
5258;DHT22;2651;51.594;9.928;2022-07-04T04:46:46;17.50;81.50
5258;DHT22;2651;51.594;9.928;2022-07-04T04:48:02;17.50;70.90
5258;DHT22;2651;51.594;9.928;2022-07-04T04:49:04;17.40;77.40
5258;DHT22;2651;51.594;9.928;2022-07-04T04:50:10;17.40;79.50
5258;DHT22;2651;51.594;9.928;2022-07-04T04:51:16;17.40;73.00
5258;DHT22;2651;51.594;9.928;2022-07-04T04:52:18;17.40;78.80
5258;DHT22;2651;51.594;9.928;2022-07-04T04:53:20;17.50;83.70
5258;DHT22;2651;51.594;9.928;2022-07-04T04:54:24;17.50;79.40
5258;DHT22;2651;51.594;9.928;2022-07-04T04:55:26;17.50;80.70
5258;DHT22;2651;51.594;9.928;2022-07-04T04:56:30;17.50;84.50
5258;DHT22;2651;51.594;9.928;2022-07-04T04:57:32;17.60;78.90
5258;DHT22;2651;51.594;9.928;2022-07-04T04:58:34;17.70;78.90
5258;DHT22;2651;51.594;9.928;2022-07-04T04:59:36;17.70;75.30
5258;DHT22;2651;51.594;9.928;2022-07-04T05:00:38;17.70;72.70
5258;DHT22;2651;51.594;9.928;2022-07-04T05:02:00;17.80;70.80
5258;DHT22;2651;51.594;9.928;2022-07-04T05:03:03;17.80;80.20
5258;DHT22;2651;51.594;9.928;2022-07-04T05:04:04;17.80;70.50
5258;DHT22;2651;51.594;9.928;2022-07-04T05:05:07;17.80;73.00
5258;DHT22;2651;51.594;9.928;2022-07-04T05:06:09;17.80;70.60
5258;DHT22;2651;51.594;9.928;2022-07-04T05:07:11;17.90;67.40
5258;DHT22;2651;51.594;9.928;2022-07-04T05:08:13;17.80;62.10
5258;DHT22;2651;51.594;9.928;2022-07-04T05:09:15;17.70;73.90
5258;DHT22;2651;51.594;9.928;2022-07-04T05:10:17;17.80;74.70
5258;DHT22;2651;51.594;9.928;2022-07-04T05:11:21;17.80;71.80
5258;DHT22;2651;51.594;9.928;2022-07-04T05:12:24;17.90;71.80
5258;DHT22;2651;51.594;9.928;2022-07-04T05:13:26;17.90;67.20
5258;DHT22;2651;51.594;9.928;2022-07-04T05:14:27;18.00;68.90
5258;DHT22;2651;51.594;9.928;2022-07-04T05:15:30;18.10;64.40
5258;DHT22;2651;51.594;9.928;2022-07-04T05:16:32;18.00;67.00
5258;DHT22;2651;51.594;9.928;2022-07-04T05:17:35;18.10;72.90
5258;DHT22;2651;51.594;9.928;2022-07-04T05:18:36;18.20;73.20
5258;DHT22;2651;51.594;9.928;2022-07-04T05:19:38;18.20;64.80
5258;DHT22;2651;51.594;9.928;2022-07-04T05:20:40;18.20;59.20
5258;DHT22;2651;51.594;9.928;2022-07-04T05:21:42;18.20;59.00
5258;DHT22;2651;51.594;9.928;2022-07-04T05:22:44;18.20;56.10
5258;DHT22;2651;51.594;9.928;2022-07-04T05:23:46;18.10;58.00
5258;DHT22;2651;51.594;9.928;2022-07-04T05:24:48;18.20;58.60
5258;DHT22;2651;51.594;9.928;2022-07-04T05:25:50;18.20;56.60
5258;DHT22;2651;51.594;9.928;2022-07-04T05:26:52;18.20;59.80
5258;DHT22;2651;51.594;9.928;2022-07-04T05:27:59;18.20;62.70
5258;DHT22;2651;51.594;9.928;2022-07-04T05:29:01;18.20;62.40
5258;DHT22;2651;51.594;9.928;2022-07-04T05:30:04;18.30;60.80
5258;DHT22;2651;51.594;9.928;2022-07-04T05:31:06;18.30;59.60
5258;DHT22;2651;51.594;9.928;2022-07-04T05:32:08;18.30;58.50
5258;DHT22;2651;51.594;9.928;2022-07-04T05:33:10;18.40;56.10
5258;DHT22;2651;51.594;9.928;2022-07-04T05:34:13;18.30;53.90
5258;DHT22;2651;51.594;9.928;2022-07-04T05:35:14;18.30;57.90
5258;DHT22;2651;51.594;9.928;2022-07-04T05:36:17;18.30;59.90
5258;DHT22;2651;51.594;9.928;2022-07-04T05:37:19;18.30;64.60
5258;DHT22;2651;51.594;9.928;2022-07-04T05:38:20;18.40;62.50
5258;DHT22;2651;51.594;9.928;2022-07-04T05:39:22;18.40;59.90
5258;DHT22;2651;51.594;9.928;2022-07-04T05:40:24;18.40;54.60
5258;DHT22;2651;51.594;9.928;2022-07-04T05:41:26;18.60;52.80
5258;DHT22;2651;51.594;9.928;2022-07-04T05:42:28;18.60;52.80
5258;DHT22;2651;51.594;9.928;2022-07-04T05:43:30;18.60;51.50
5258;DHT22;2651;51.594;9.928;2022-07-04T05:44:32;18.60;47.70
5258;DHT22;2651;51.594;9.928;2022-07-04T05:45:34;18.70;44.30
5258;DHT22;2651;51.594;9.928;2022-07-04T05:46:36;18.80;39.80
5258;DHT22;2651;51.594;9.928;2022-07-04T05:47:37;18.80;41.60
5258;DHT22;2651;51.594;9.928;2022-07-04T05:48:39;18.90;36.90
5258;DHT22;2651;51.594;9.928;2022-07-04T05:49:41;18.90;34.00
5258;DHT22;2651;51.594;9.928;2022-07-04T05:50:43;18.90;36.20
5258;DHT22;2651;51.594;9.928;2022-07-04T05:51:45;18.90;37.10
5258;DHT22;2651;51.594;9.928;2022-07-04T05:52:47;19.00;40.20
5258;DHT22;2651;51.594;9.928;2022-07-04T05:53:55;19.00;35.30
5258;DHT22;2651;51.594;9.928;2022-07-04T05:54:57;19.10;30.90
5258;DHT22;2651;51.594;9.928;2022-07-04T05:55:59;19.00;25.70
5258;DHT22;2651;51.594;9.928;2022-07-04T05:57:00;18.90;31.40
5258;DHT22;2651;51.594;9.928;2022-07-04T05:58:02;18.90;36.40
5258;DHT22;2651;51.594;9.928;2022-07-04T05:59:04;18.90;38.90
5258;DHT22;2651;51.594;9.928;2022-07-04T06:00:06;18.80;36.30
5258;DHT22;2651;51.594;9.928;2022-07-04T06:01:08;18.80;39.10
5258;DHT22;2651;51.594;9.928;2022-07-04T06:02:11;18.80;40.60
5258;DHT22;2651;51.594;9.928;2022-07-04T06:03:13;18.90;44.60
5258;DHT22;2651;51.594;9.928;2022-07-04T06:04:14;19.00;42.30
5258;DHT22;2651;51.594;9.928;2022-07-04T06:05:16;19.00;39.50
5258;DHT22;2651;51.594;9.928;2022-07-04T06:06:18;19.10;32.90
5258;DHT22;2651;51.594;9.928;2022-07-04T06:07:20;19.10;40.20
5258;DHT22;2651;51.594;9.928;2022-07-04T06:08:22;19.10;27.30
5258;DHT22;2651;51.594;9.928;2022-07-04T06:09:24;19.10;27.70
5258;DHT22;2651;51.594;9.928;2022-07-04T06:10:29;19.20;26.80
5258;DHT22;2651;51.594;9.928;2022-07-04T06:11:31;19.20;24.60
5258;DHT22;2651;51.594;9.928;2022-07-04T06:12:33;19.20;29.60
5258;DHT22;2651;51.594;9.928;2022-07-04T06:13:35;19.30;22.00
5258;DHT22;2651;51.594;9.928;2022-07-04T06:14:36;19.20;18.80
5258;DHT22;2651;51.594;9.928;2022-07-04T06:15:38;19.20;22.70
5258;DHT22;2651;51.594;9.928;2022-07-04T06:16:42;19.20;23.40
5258;DHT22;2651;51.594;9.928;2022-07-04T06:17:44;19.20;22.60
5258;DHT22;2651;51.594;9.928;2022-07-04T06:18:47;19.20;25.70
5258;DHT22;2651;51.594;9.928;2022-07-04T06:19:49;19.10;22.50
5258;DHT22;2651;51.594;9.928;2022-07-04T06:20:51;19.00;26.10
5258;DHT22;2651;51.594;9.928;2022-07-04T06:21:53;19.00;30.70
5258;DHT22;2651;51.594;9.928;2022-07-04T06:22:55;19.10;34.20
5258;DHT22;2651;51.594;9.928;2022-07-04T06:24:00;19.00;28.40
5258;DHT22;2651;51.594;9.928;2022-07-04T06:25:04;19.00;26.70
5258;DHT22;2651;51.594;9.928;2022-07-04T06:26:06;18.90;31.40
5258;DHT22;2651;51.594;9.928;2022-07-04T06:27:08;18.90;31.10
5258;DHT22;2651;51.594;9.928;2022-07-04T06:28:10;18.90;29.70
5258;DHT22;2651;51.594;9.928;2022-07-04T06:29:32;18.90;27.70
5258;DHT22;2651;51.594;9.928;2022-07-04T06:30:34;18.90;31.00
5258;DHT22;2651;51.594;9.928;2022-07-04T06:31:36;19.00;30.50
5258;DHT22;2651;51.594;9.928;2022-07-04T06:32:45;19.10;31.80
5258;DHT22;2651;51.594;9.928;2022-07-04T06:33:48;19.10;29.50
5258;DHT22;2651;51.594;9.928;2022-07-04T06:35:09;19.20;27.50
5258;DHT22;2651;51.594;9.928;2022-07-04T06:36:30;19.20;25.00
5258;DHT22;2651;51.594;9.928;2022-07-04T06:37:32;19.20;19.60
5258;DHT22;2651;51.594;9.928;2022-07-04T06:38:38;19.20;25.00
5258;DHT22;2651;51.594;9.928;2022-07-04T06:39:43;19.20;19.10
5258;DHT22;2651;51.594;9.928;2022-07-04T06:40:45;19.10;23.10
5258;DHT22;2651;51.594;9.928;2022-07-04T06:41:47;19.20;23.10
5258;DHT22;2651;51.594;9.928;2022-07-04T06:42:50;19.30;16.30
5258;DHT22;2651;51.594;9.928;2022-07-04T06:43:52;19.40;18.80
5258;DHT22;2651;51.594;9.928;2022-07-04T06:44:54;19.30;14.00
5258;DHT22;2651;51.594;9.928;2022-07-04T06:45:55;19.30;12.50
5258;DHT22;2651;51.594;9.928;2022-07-04T06:46:58;19.40;16.80
5258;DHT22;2651;51.594;9.928;2022-07-04T06:48:06;19.50;17.70
5258;DHT22;2651;51.594;9.928;2022-07-04T06:49:16;19.60;13.80
5258;DHT22;2651;51.594;9.928;2022-07-04T06:50:18;19.80;13.30
5258;DHT22;2651;51.594;9.928;2022-07-04T06:51:46;19.90;4.60